Архив погоды в Белом

Метеограмма Белый
Четверг, 18 Октября
Время местн. Темп Ветер Видим Явления Облачность нижн/средн/верх Атм. давл. Влжн Точка росы ВНГО R Сост. почвы Tg s
Напр Скр Прв ур.ст ур.м изм
03:00 +3.2° Ю 1 - 10 км - ясно 749 770 -0.2 95% +2.5° более 2.5 км - - - -
00:00 +5° штиль 0 - 10 км - ясно 749 770 -0.1 94% +4.1° более 2.5 км - - - -
Среда, 17 Октября
Время местн. Темп Ветер Видим Явления Облачность нижн/средн/верх Атм. давл. Влжн Точка росы ВНГО R Сост. почвы Tg s
Напр Скр Прв ур.ст ур.м изм
21:00 +8.4° Ю 1 - 10 км - ясно 749 770 -0.2 83% +5.7° более 2.5 км 0 - - -
18:00 +15.5° Ю,Ю-З 2 - 20 км - ясно 749 769 -0.4 52% +5.8° более 2.5 км - - - -
15:00 +18.9° З,Ю-З 3 - 20 км - ясно 750 769 -0.5 45% +6.7° более 2.5 км - - - -
12:00 +14.9° Ю-З 2 - 20 км - ясно 750 770 +0.3 60% +7.2° более 2.5 км - - - -
09:00 +4.6° В 1 - 4 км дымка ясно 750 771 +0.5 89% +2.9° более 2.5 км 0 Влажная (без луж) - -
06:00 +7.2° Ю,Ю-З 2 - 10 км - ясно 749 770 0 88% +5.4° более 2.5 км - - - -
03:00 +8° Ю-З 3 - 10 км - ясно 749 770 +0.1 85% +5.6° более 2.5 км - - - -
00:00 +10.1° Ю-З 3 - 10 км - ясно 749 770 +0.1 71% +5° более 2.5 км - - - -
Вторник, 16 Октября
Время местн. Темп Ветер Видим Явления Облачность нижн/средн/верх Атм. давл. Влжн Точка росы ВНГО R Сост. почвы Tg s
Напр Скр Прв ур.ст ур.м изм
21:00 +11.8° Ю-З 3 - 10 км - ясно 749 769 -0.2 57% +3.6° более 2.5 км 0 - - -
18:00 +14.9° З,Ю-З 1 - 20 км - ясно 749 769 0 40% +1.5° более 2.5 км - - - -
15:00 +18.8° Ю-З 3 - 50 км - ясно 749 769 -0.8 31% +1.2° более 2.5 км - - - -
12:00 +14.8° Ю-З 3 - 50 км - переменная облачность 750 770 -0.2 50% +4.5° более 2.5 км - - - -
09:00 +7.2° Ю,Ю-З 2 - 20 км - переменная облачность 750 771 -0.2 80% +4° более 2.5 км 0 Влажная (без луж) - -
06:00 +1.8° Ю 1 - 10 км - ясно 751 772 -0.5 94% +1° более 2.5 км - - - -
03:00 +2.4° Ю 1 - 10 км - ясно 751 772 +0.2 94% +1.6° более 2.5 км - - - -
00:00 +7.1° Ю-З 1 - 10 км - ясно 751 772 -0.1 75% +3° более 2.5 км - - - -
Понедельник, 15 Октября
Время местн. Темп Ветер Видим Явления Облачность нижн/средн/верх Атм. давл. Влжн Точка росы ВНГО R Сост. почвы Tg s
Напр Скр Прв ур.ст ур.м изм
21:00 +9.4° Ю,Ю-З 1 - 10 км - ясно 751 771 -0.5 66% +3.3° более 2.5 км 0 - - -
18:00 +13.9° Ю-З 1 - 20 км - облачно с прояснениями 752 772 -0.6 48% +3.1° более 2.5 км - - - -
15:00 +17.6° Ю-З 2 - 50 км небо без изменений {туман} переменная облачность 752 772 -0.5 46% +5.7° более 2.5 км - - - -
12:00 +13.3° Ю-З 2 - 50 км небо без изменений {туман} переменная облачность 753 773 +0.3 79% +9.8° более 2.5 км - - - -
09:00 +1.5° Ю,Ю-В 1 - 0.5 км туман неба не видно 752 773 +0.1 100% +1.5° - 0 Влажная (без луж) - -
06:00 +0.5° Ю-З 1 - 0.5 км туман усиливается неба не видно 752 773 0 100% +0.5° - - - - -
03:00 +2.5° Ю-З 1 - 4 км дымка ясно 752 773 +0.1 96% +1.9° более 2.5 км - - - -
00:00 +8.7° Ю-З 2 - 10 км - ясно 752 773 +0.2 94% +7.8° более 2.5 км - - - -